sensor_id;sensor_type;location;lat;lon;timestamp;temperature;humidity
3051;DHT22;1535;51.098;6.414;2024-01-27T00:00:42;2.40;99.90
3051;DHT22;1535;51.098;6.414;2024-01-27T00:03:09;2.40;99.90
3051;DHT22;1535;51.098;6.414;2024-01-27T00:05:36;2.30;99.90
3051;DHT22;1535;51.098;6.414;2024-01-27T00:08:04;2.20;99.90
3051;DHT22;1535;51.098;6.414;2024-01-27T00:10:30;2.20;99.90
3051;DHT22;1535;51.098;6.414;2024-01-27T00:12:57;2.10;99.90
3051;DHT22;1535;51.098;6.414;2024-01-27T00:15:25;2.20;99.90
3051;DHT22;1535;51.098;6.414;2024-01-27T00:17:53;2.20;99.90
3051;DHT22;1535;51.098;6.414;2024-01-27T00:20:20;2.20;99.90
3051;DHT22;1535;51.098;6.414;2024-01-27T00:22:46;2.10;99.90
3051;DHT22;1535;51.098;6.414;2024-01-27T00:25:13;2.00;99.90
3051;DHT22;1535;51.098;6.414;2024-01-27T00:27:40;1.90;99.90
3051;DHT22;1535;51.098;6.414;2024-01-27T00:30:08;1.90;99.90
3051;DHT22;1535;51.098;6.414;2024-01-27T00:32:37;1.90;99.90
3051;DHT22;1535;51.098;6.414;2024-01-27T00:35:07;1.90;99.90
3051;DHT22;1535;51.098;6.414;2024-01-27T00:37:34;1.90;99.90
3051;DHT22;1535;51.098;6.414;2024-01-27T00:40:01;1.90;99.90
3051;DHT22;1535;51.098;6.414;2024-01-27T00:42:29;1.80;99.90
3051;DHT22;1535;51.098;6.414;2024-01-27T00:44:56;1.70;99.90
3051;DHT22;1535;51.098;6.414;2024-01-27T00:47:23;1.70;99.90
3051;DHT22;1535;51.098;6.414;2024-01-27T00:49:50;1.60;99.90
3051;DHT22;1535;51.098;6.414;2024-01-27T00:52:21;1.60;99.90
3051;DHT22;1535;51.098;6.414;2024-01-27T00:54:48;1.70;99.90
3051;DHT22;1535;51.098;6.414;2024-01-27T00:57:15;1.70;99.90
3051;DHT22;1535;51.098;6.414;2024-01-27T00:59:42;1.60;99.90
3051;DHT22;1535;51.098;6.414;2024-01-27T01:02:09;1.60;99.90
3051;DHT22;1535;51.098;6.414;2024-01-27T01:04:36;1.60;99.90
3051;DHT22;1535;51.098;6.414;2024-01-27T01:07:03;1.60;99.90
3051;DHT22;1535;51.098;6.414;2024-01-27T01:09:32;1.50;99.90
3051;DHT22;1535;51.098;6.414;2024-01-27T01:11:59;1.50;99.90
3051;DHT22;1535;51.098;6.414;2024-01-27T01:14:26;1.50;99.90
3051;DHT22;1535;51.098;6.414;2024-01-27T01:16:53;1.50;99.90
3051;DHT22;1535;51.098;6.414;2024-01-27T01:19:20;1.40;99.90
3051;DHT22;1535;51.098;6.414;2024-01-27T01:21:47;1.40;99.90
3051;DHT22;1535;51.098;6.414;2024-01-27T01:24:14;1.40;99.90
3051;DHT22;1535;51.098;6.414;2024-01-27T01:26:42;1.40;99.90
3051;DHT22;1535;51.098;6.414;2024-01-27T01:29:10;1.40;99.90
3051;DHT22;1535;51.098;6.414;2024-01-27T01:31:37;1.30;99.90
3051;DHT22;1535;51.098;6.414;2024-01-27T01:34:04;1.20;99.90
3051;DHT22;1535;51.098;6.414;2024-01-27T01:36:31;1.20;99.90
3051;DHT22;1535;51.098;6.414;2024-01-27T01:38:57;1.30;99.90
3051;DHT22;1535;51.098;6.414;2024-01-27T01:41:25;1.40;99.90
3051;DHT22;1535;51.098;6.414;2024-01-27T01:43:52;1.40;99.90
3051;DHT22;1535;51.098;6.414;2024-01-27T01:46:19;1.40;99.90
3051;DHT22;1535;51.098;6.414;2024-01-27T01:48:46;1.30;99.90
3051;DHT22;1535;51.098;6.414;2024-01-27T01:51:14;1.30;99.90
3051;DHT22;1535;51.098;6.414;2024-01-27T01:53:43;1.30;99.90
3051;DHT22;1535;51.098;6.414;2024-01-27T01:56:10;1.40;99.90
3051;DHT22;1535;51.098;6.414;2024-01-27T01:58:40;1.30;99.90
3051;DHT22;1535;51.098;6.414;2024-01-27T02:01:09;1.30;99.90
3051;DHT22;1535;51.098;6.414;2024-01-27T02:03:36;1.30;99.90
3051;DHT22;1535;51.098;6.414;2024-01-27T02:06:03;1.30;99.90
3051;DHT22;1535;51.098;6.414;2024-01-27T02:08:30;1.30;99.90
3051;DHT22;1535;51.098;6.414;2024-01-27T02:10:57;1.30;99.90
3051;DHT22;1535;51.098;6.414;2024-01-27T02:13:26;1.30;99.90
3051;DHT22;1535;51.098;6.414;2024-01-27T02:15:54;1.30;99.90
3051;DHT22;1535;51.098;6.414;2024-01-27T02:18:22;1.20;99.90
3051;DHT22;1535;51.098;6.414;2024-01-27T02:20:49;1.10;99.90
3051;DHT22;1535;51.098;6.414;2024-01-27T02:23:16;1.00;99.90
3051;DHT22;1535;51.098;6.414;2024-01-27T02:25:44;1.00;99.90
3051;DHT22;1535;51.098;6.414;2024-01-27T02:28:11;1.00;99.90
3051;DHT22;1535;51.098;6.414;2024-01-27T02:30:39;1.10;99.90
3051;DHT22;1535;51.098;6.414;2024-01-27T02:33:05;1.10;99.90
3051;DHT22;1535;51.098;6.414;2024-01-27T02:35:32;1.10;99.90
3051;DHT22;1535;51.098;6.414;2024-01-27T02:37:59;1.10;99.90
3051;DHT22;1535;51.098;6.414;2024-01-27T02:40:26;1.10;99.90
3051;DHT22;1535;51.098;6.414;2024-01-27T02:42:54;1.10;99.90
3051;DHT22;1535;51.098;6.414;2024-01-27T02:45:21;1.10;99.90
3051;DHT22;1535;51.098;6.414;2024-01-27T02:47:48;1.10;99.90
3051;DHT22;1535;51.098;6.414;2024-01-27T02:50:15;1.00;99.90
3051;DHT22;1535;51.098;6.414;2024-01-27T02:52:42;1.10;99.90
3051;DHT22;1535;51.098;6.414;2024-01-27T02:55:09;1.00;99.90
3051;DHT22;1535;51.098;6.414;2024-01-27T02:57:35;1.00;99.90
3051;DHT22;1535;51.098;6.414;2024-01-27T03:00:04;0.90;99.90
3051;DHT22;1535;51.098;6.414;2024-01-27T03:02:31;1.00;99.90
3051;DHT22;1535;51.098;6.414;2024-01-27T03:04:58;1.20;99.90
3051;DHT22;1535;51.098;6.414;2024-01-27T03:07:25;1.20;99.90
3051;DHT22;1535;51.098;6.414;2024-01-27T03:09:52;1.20;99.90
3051;DHT22;1535;51.098;6.414;2024-01-27T03:12:19;1.20;99.90
3051;DHT22;1535;51.098;6.414;2024-01-27T03:14:48;1.10;99.90
3051;DHT22;1535;51.098;6.414;2024-01-27T03:17:18;1.10;99.90
3051;DHT22;1535;51.098;6.414;2024-01-27T03:19:45;1.20;99.90
3051;DHT22;1535;51.098;6.414;2024-01-27T03:22:12;1.20;99.90
3051;DHT22;1535;51.098;6.414;2024-01-27T03:24:38;1.20;99.90
3051;DHT22;1535;51.098;6.414;2024-01-27T03:27:05;1.20;99.90
3051;DHT22;1535;51.098;6.414;2024-01-27T03:29:33;1.20;99.90
3051;DHT22;1535;51.098;6.414;2024-01-27T03:32:00;1.20;99.90
3051;DHT22;1535;51.098;6.414;2024-01-27T03:34:28;1.10;99.90
3051;DHT22;1535;51.098;6.414;2024-01-27T03:36:55;1.10;99.90
3051;DHT22;1535;51.098;6.414;2024-01-27T03:39:22;1.10;99.90
3051;DHT22;1535;51.098;6.414;2024-01-27T03:41:49;1.10;99.90
3051;DHT22;1535;51.098;6.414;2024-01-27T03:44:16;1.20;99.90
3051;DHT22;1535;51.098;6.414;2024-01-27T03:46:43;1.20;99.90
3051;DHT22;1535;51.098;6.414;2024-01-27T03:49:10;1.20;99.90
3051;DHT22;1535;51.098;6.414;2024-01-27T03:51:38;1.10;99.90
3051;DHT22;1535;51.098;6.414;2024-01-27T03:54:05;1.10;99.90
3051;DHT22;1535;51.098;6.414;2024-01-27T03:56:32;1.20;99.90
3051;DHT22;1535;51.098;6.414;2024-01-27T03:58:58;1.20;99.90
3051;DHT22;1535;51.098;6.414;2024-01-27T04:01:25;1.20;99.90
3051;DHT22;1535;51.098;6.414;2024-01-27T04:03:52;1.10;99.90
3051;DHT22;1535;51.098;6.414;2024-01-27T04:06:20;1.00;99.90
3051;DHT22;1535;51.098;6.414;2024-01-27T04:08:48;1.00;99.90
3051;DHT22;1535;51.098;6.414;2024-01-27T04:11:21;1.10;99.90
3051;DHT22;1535;51.098;6.414;2024-01-27T04:13:49;1.10;99.90
3051;DHT22;1535;51.098;6.414;2024-01-27T04:16:16;0.90;99.90
3051;DHT22;1535;51.098;6.414;2024-01-27T04:18:43;0.80;99.90
3051;DHT22;1535;51.098;6.414;2024-01-27T04:21:10;0.80;99.90
3051;DHT22;1535;51.098;6.414;2024-01-27T04:23:37;0.80;99.90
3051;DHT22;1535;51.098;6.414;2024-01-27T04:26:07;0.80;99.90
3051;DHT22;1535;51.098;6.414;2024-01-27T04:28:35;0.80;99.90
3051;DHT22;1535;51.098;6.414;2024-01-27T04:31:02;1.00;99.90
3051;DHT22;1535;51.098;6.414;2024-01-27T04:33:29;1.00;99.90
3051;DHT22;1535;51.098;6.414;2024-01-27T04:35:56;1.00;99.90
3051;DHT22;1535;51.098;6.414;2024-01-27T04:38:23;1.10;99.90
3051;DHT22;1535;51.098;6.414;2024-01-27T04:40:51;1.10;99.90
3051;DHT22;1535;51.098;6.414;2024-01-27T04:43:20;1.10;99.90
3051;DHT22;1535;51.098;6.414;2024-01-27T04:45:47;1.20;99.90
3051;DHT22;1535;51.098;6.414;2024-01-27T04:48:15;1.20;99.90
3051;DHT22;1535;51.098;6.414;2024-01-27T04:50:41;1.10;99.90
3051;DHT22;1535;51.098;6.414;2024-01-27T04:53:08;1.10;99.90
3051;DHT22;1535;51.098;6.414;2024-01-27T04:55:36;1.10;99.90
3051;DHT22;1535;51.098;6.414;2024-01-27T04:58:04;1.10;99.90
3051;DHT22;1535;51.098;6.414;2024-01-27T05:00:32;1.10;99.90
3051;DHT22;1535;51.098;6.414;2024-01-27T05:02:59;1.10;99.90
3051;DHT22;1535;51.098;6.414;2024-01-27T05:05:29;1.10;99.90
3051;DHT22;1535;51.098;6.414;2024-01-27T05:07:56;1.10;99.90
3051;DHT22;1535;51.098;6.414;2024-01-27T05:10:23;1.20;99.90
3051;DHT22;1535;51.098;6.414;2024-01-27T05:12:51;1.20;99.90
3051;DHT22;1535;51.098;6.414;2024-01-27T05:15:18;1.10;99.90
3051;DHT22;1535;51.098;6.414;2024-01-27T05:17:48;1.10;99.90
3051;DHT22;1535;51.098;6.414;2024-01-27T05:20:14;1.20;99.90
3051;DHT22;1535;51.098;6.414;2024-01-27T05:22:41;1.10;99.90
3051;DHT22;1535;51.098;6.414;2024-01-27T05:25:08;1.20;99.90
3051;DHT22;1535;51.098;6.414;2024-01-27T05:27:37;1.20;99.90
3051;DHT22;1535;51.098;6.414;2024-01-27T05:30:05;1.10;99.90
3051;DHT22;1535;51.098;6.414;2024-01-27T05:32:32;1.10;99.90
3051;DHT22;1535;51.098;6.414;2024-01-27T05:35:00;1.10;99.90
3051;DHT22;1535;51.098;6.414;2024-01-27T05:37:27;1.10;99.90
3051;DHT22;1535;51.098;6.414;2024-01-27T05:39:54;1.00;99.90
3051;DHT22;1535;51.098;6.414;2024-01-27T05:42:22;0.90;99.90
3051;DHT22;1535;51.098;6.414;2024-01-27T05:44:48;0.80;99.90
3051;DHT22;1535;51.098;6.414;2024-01-27T05:47:16;0.80;99.90
3051;DHT22;1535;51.098;6.414;2024-01-27T05:49:43;0.70;99.90
3051;DHT22;1535;51.098;6.414;2024-01-27T05:52:11;0.70;99.90
3051;DHT22;1535;51.098;6.414;2024-01-27T05:54:39;0.80;99.90
3051;DHT22;1535;51.098;6.414;2024-01-27T05:57:08;0.90;99.90
3051;DHT22;1535;51.098;6.414;2024-01-27T05:59:35;0.90;99.90
3051;DHT22;1535;51.098;6.414;2024-01-27T06:02:02;0.90;99.90
3051;DHT22;1535;51.098;6.414;2024-01-27T06:04:29;0.80;99.90
3051;DHT22;1535;51.098;6.414;2024-01-27T06:06:56;0.70;99.90
3051;DHT22;1535;51.098;6.414;2024-01-27T06:09:24;0.60;99.90
3051;DHT22;1535;51.098;6.414;2024-01-27T06:11:51;0.50;99.90
3051;DHT22;1535;51.098;6.414;2024-01-27T06:14:18;0.50;99.90
3051;DHT22;1535;51.098;6.414;2024-01-27T06:16:45;0.60;99.90
3051;DHT22;1535;51.098;6.414;2024-01-27T06:19:13;0.60;99.90
3051;DHT22;1535;51.098;6.414;2024-01-27T06:21:40;0.50;99.90
3051;DHT22;1535;51.098;6.414;2024-01-27T06:24:06;0.40;99.90
3051;DHT22;1535;51.098;6.414;2024-01-27T06:26:34;0.40;99.90
3051;DHT22;1535;51.098;6.414;2024-01-27T06:29:01;0.40;99.90
3051;DHT22;1535;51.098;6.414;2024-01-27T06:31:28;0.30;99.90
3051;DHT22;1535;51.098;6.414;2024-01-27T06:33:55;0.30;99.90
3051;DHT22;1535;51.098;6.414;2024-01-27T06:36:22;0.20;99.90
3051;DHT22;1535;51.098;6.414;2024-01-27T06:38:50;0.30;99.90
3051;DHT22;1535;51.098;6.414;2024-01-27T06:41:17;0.30;99.90
3051;DHT22;1535;51.098;6.414;2024-01-27T06:43:46;0.40;99.90
3051;DHT22;1535;51.098;6.414;2024-01-27T06:46:13;0.40;99.90
3051;DHT22;1535;51.098;6.414;2024-01-27T06:48:40;0.40;99.90
3051;DHT22;1535;51.098;6.414;2024-01-27T06:51:07;0.40;99.90
3051;DHT22;1535;51.098;6.414;2024-01-27T06:53:35;0.50;99.90
3051;DHT22;1535;51.098;6.414;2024-01-27T06:56:03;0.40;99.90
3051;DHT22;1535;51.098;6.414;2024-01-27T06:58:30;0.30;99.90
3051;DHT22;1535;51.098;6.414;2024-01-27T07:00:59;0.30;99.90
3051;DHT22;1535;51.098;6.414;2024-01-27T07:03:26;0.30;99.90
3051;DHT22;1535;51.098;6.414;2024-01-27T07:05:53;0.30;99.90
3051;DHT22;1535;51.098;6.414;2024-01-27T07:08:20;0.30;99.90
3051;DHT22;1535;51.098;6.414;2024-01-27T07:10:48;0.20;99.90
3051;DHT22;1535;51.098;6.414;2024-01-27T07:13:15;0.10;99.90
3051;DHT22;1535;51.098;6.414;2024-01-27T07:15:41;0.10;99.90
3051;DHT22;1535;51.098;6.414;2024-01-27T07:18:10;0.10;99.90
3051;DHT22;1535;51.098;6.414;2024-01-27T07:20:37;0.10;99.90
3051;DHT22;1535;51.098;6.414;2024-01-27T07:23:04;0.10;99.90
3051;DHT22;1535;51.098;6.414;2024-01-27T07:25:31;0.00;99.90
3051;DHT22;1535;51.098;6.414;2024-01-27T07:27:58;0.00;99.90
3051;DHT22;1535;51.098;6.414;2024-01-27T07:30:25;0.00;99.90
3051;DHT22;1535;51.098;6.414;2024-01-27T07:32:52;0.10;99.90
3051;DHT22;1535;51.098;6.414;2024-01-27T07:35:22;0.20;99.90
3051;DHT22;1535;51.098;6.414;2024-01-27T07:37:49;0.50;99.90
3051;DHT22;1535;51.098;6.414;2024-01-27T07:40:16;0.60;99.90
3051;DHT22;1535;51.098;6.414;2024-01-27T07:42:43;0.60;99.90
3051;DHT22;1535;51.098;6.414;2024-01-27T07:45:10;0.70;99.90
3051;DHT22;1535;51.098;6.414;2024-01-27T07:47:37;0.70;99.90
3051;DHT22;1535;51.098;6.414;2024-01-27T07:50:05;0.70;99.90
3051;DHT22;1535;51.098;6.414;2024-01-27T07:52:34;0.70;99.90
3051;DHT22;1535;51.098;6.414;2024-01-27T07:55:01;0.70;99.90
3051;DHT22;1535;51.098;6.414;2024-01-27T07:57:28;0.70;99.90
3051;DHT22;1535;51.098;6.414;2024-01-27T07:59:55;0.80;99.90
3051;DHT22;1535;51.098;6.414;2024-01-27T08:02:23;0.80;99.90
3051;DHT22;1535;51.098;6.414;2024-01-27T08:04:51;0.80;99.90
3051;DHT22;1535;51.098;6.414;2024-01-27T08:07:18;0.80;99.90
3051;DHT22;1535;51.098;6.414;2024-01-27T08:09:47;0.80;99.90
3051;DHT22;1535;51.098;6.414;2024-01-27T08:12:13;0.80;99.90
3051;DHT22;1535;51.098;6.414;2024-01-27T08:14:40;0.90;99.90
3051;DHT22;1535;51.098;6.414;2024-01-27T08:17:08;1.00;99.90
3051;DHT22;1535;51.098;6.414;2024-01-27T08:19:35;1.00;99.90
3051;DHT22;1535;51.098;6.414;2024-01-27T08:22:03;1.10;99.90
3051;DHT22;1535;51.098;6.414;2024-01-27T08:24:30;1.20;99.90
3051;DHT22;1535;51.098;6.414;2024-01-27T08:26:59;1.20;99.90
3051;DHT22;1535;51.098;6.414;2024-01-27T08:29:26;1.30;99.90
3051;DHT22;1535;51.098;6.414;2024-01-27T08:31:53;1.30;99.90
3051;DHT22;1535;51.098;6.414;2024-01-27T08:34:21;1.30;99.90
3051;DHT22;1535;51.098;6.414;2024-01-27T08:36:48;1.40;99.90
3051;DHT22;1535;51.098;6.414;2024-01-27T08:39:15;1.40;99.90
3051;DHT22;1535;51.098;6.414;2024-01-27T08:41:41;1.50;99.90
3051;DHT22;1535;51.098;6.414;2024-01-27T08:44:11;1.50;99.90
3051;DHT22;1535;51.098;6.414;2024-01-27T08:46:37;1.50;99.90
3051;DHT22;1535;51.098;6.414;2024-01-27T08:49:04;1.60;99.90
3051;DHT22;1535;51.098;6.414;2024-01-27T08:51:31;1.60;99.90
3051;DHT22;1535;51.098;6.414;2024-01-27T08:53:58;1.70;99.90
3051;DHT22;1535;51.098;6.414;2024-01-27T08:56:26;1.70;99.90
3051;DHT22;1535;51.098;6.414;2024-01-27T08:58:55;1.60;99.90
3051;DHT22;1535;51.098;6.414;2024-01-27T09:01:24;1.60;99.90
3051;DHT22;1535;51.098;6.414;2024-01-27T09:03:51;1.70;99.90
3051;DHT22;1535;51.098;6.414;2024-01-27T09:06:18;1.90;99.90
3051;DHT22;1535;51.098;6.414;2024-01-27T09:08:44;2.00;99.90
3051;DHT22;1535;51.098;6.414;2024-01-27T09:11:12;2.00;99.90
3051;DHT22;1535;51.098;6.414;2024-01-27T09:13:39;2.10;99.90
3051;DHT22;1535;51.098;6.414;2024-01-27T09:16:06;2.20;99.90
3051;DHT22;1535;51.098;6.414;2024-01-27T09:18:39;2.20;99.90
3051;DHT22;1535;51.098;6.414;2024-01-27T09:21:06;2.30;99.90
3051;DHT22;1535;51.098;6.414;2024-01-27T09:23:33;2.40;99.90
3051;DHT22;1535;51.098;6.414;2024-01-27T09:26:00;2.50;99.90
3051;DHT22;1535;51.098;6.414;2024-01-27T09:28:27;2.50;99.90
3051;DHT22;1535;51.098;6.414;2024-01-27T09:30:54;2.60;99.90
3051;DHT22;1535;51.098;6.414;2024-01-27T09:33:21;2.60;99.90
3051;DHT22;1535;51.098;6.414;2024-01-27T09:35:51;2.70;99.90
3051;DHT22;1535;51.098;6.414;2024-01-27T09:38:18;2.80;99.90
3051;DHT22;1535;51.098;6.414;2024-01-27T09:40:45;2.90;99.90
3051;DHT22;1535;51.098;6.414;2024-01-27T09:43:13;3.00;99.90
3051;DHT22;1535;51.098;6.414;2024-01-27T09:45:39;3.00;99.90
3051;DHT22;1535;51.098;6.414;2024-01-27T09:48:08;3.10;99.90
3051;DHT22;1535;51.098;6.414;2024-01-27T09:50:37;3.20;99.90
3051;DHT22;1535;51.098;6.414;2024-01-27T09:53:06;3.30;99.90
3051;DHT22;1535;51.098;6.414;2024-01-27T09:55:34;3.40;99.90
3051;DHT22;1535;51.098;6.414;2024-01-27T09:58:01;3.30;99.90
3051;DHT22;1535;51.098;6.414;2024-01-27T10:00:28;3.40;99.90
3051;DHT22;1535;51.098;6.414;2024-01-27T10:02:56;3.40;99.90
3051;DHT22;1535;51.098;6.414;2024-01-27T10:05:24;3.50;99.90
3051;DHT22;1535;51.098;6.414;2024-01-27T10:07:51;3.60;99.90
3051;DHT22;1535;51.098;6.414;2024-01-27T10:10:19;3.80;99.90
3051;DHT22;1535;51.098;6.414;2024-01-27T10:12:47;3.90;99.90
3051;DHT22;1535;51.098;6.414;2024-01-27T10:15:19;4.00;99.90
3051;DHT22;1535;51.098;6.414;2024-01-27T10:17:46;4.00;99.90
3051;DHT22;1535;51.098;6.414;2024-01-27T10:20:14;4.10;99.90
3051;DHT22;1535;51.098;6.414;2024-01-27T10:22:44;4.20;99.90
3051;DHT22;1535;51.098;6.414;2024-01-27T10:25:11;4.30;99.90
3051;DHT22;1535;51.098;6.414;2024-01-27T10:27:40;4.40;99.90
3051;DHT22;1535;51.098;6.414;2024-01-27T10:30:15;4.40;99.90
3051;DHT22;1535;51.098;6.414;2024-01-27T10:32:42;4.50;99.90
3051;DHT22;1535;51.098;6.414;2024-01-27T10:35:09;4.70;99.90
3051;DHT22;1535;51.098;6.414;2024-01-27T10:37:37;4.80;99.90
3051;DHT22;1535;51.098;6.414;2024-01-27T10:40:05;4.90;99.90
3051;DHT22;1535;51.098;6.414;2024-01-27T10:42:34;4.90;99.90
3051;DHT22;1535;51.098;6.414;2024-01-27T10:45:04;5.00;99.90
3051;DHT22;1535;51.098;6.414;2024-01-27T10:47:32;5.00;99.90
3051;DHT22;1535;51.098;6.414;2024-01-27T10:50:01;5.10;99.90
3051;DHT22;1535;51.098;6.414;2024-01-27T10:52:29;5.10;99.90
3051;DHT22;1535;51.098;6.414;2024-01-27T10:54:59;5.00;99.90
3051;DHT22;1535;51.098;6.414;2024-01-27T10:57:29;5.10;99.90
3051;DHT22;1535;51.098;6.414;2024-01-27T10:59:57;5.20;99.90
3051;DHT22;1535;51.098;6.414;2024-01-27T11:02:25;5.30;99.90
3051;DHT22;1535;51.098;6.414;2024-01-27T11:04:52;5.40;99.90
3051;DHT22;1535;51.098;6.414;2024-01-27T11:07:20;5.60;99.90
3051;DHT22;1535;51.098;6.414;2024-01-27T11:09:49;6.00;99.90
3051;DHT22;1535;51.098;6.414;2024-01-27T11:12:21;6.60;99.90
3051;DHT22;1535;51.098;6.414;2024-01-27T11:14:49;7.40;99.90
3051;DHT22;1535;51.098;6.414;2024-01-27T11:17:17;7.90;99.90
3051;DHT22;1535;51.098;6.414;2024-01-27T11:19:46;8.50;99.90
3051;DHT22;1535;51.098;6.414;2024-01-27T11:22:24;9.00;99.90
3051;DHT22;1535;51.098;6.414;2024-01-27T11:24:51;9.30;99.90
3051;DHT22;1535;51.098;6.414;2024-01-27T11:27:33;9.30;99.90
3051;DHT22;1535;51.098;6.414;2024-01-27T11:30:01;9.50;99.90
3051;DHT22;1535;51.098;6.414;2024-01-27T11:32:27;9.80;99.90
3051;DHT22;1535;51.098;6.414;2024-01-27T11:34:56;9.50;99.90
3051;DHT22;1535;51.098;6.414;2024-01-27T11:37:23;9.70;99.90
3051;DHT22;1535;51.098;6.414;2024-01-27T11:39:51;9.80;99.90
3051;DHT22;1535;51.098;6.414;2024-01-27T11:42:19;9.60;99.90
3051;DHT22;1535;51.098;6.414;2024-01-27T11:44:45;9.70;99.90
3051;DHT22;1535;51.098;6.414;2024-01-27T11:47:16;9.70;99.90
3051;DHT22;1535;51.098;6.414;2024-01-27T11:49:51;9.90;99.90
3051;DHT22;1535;51.098;6.414;2024-01-27T11:52:20;9.80;99.90
3051;DHT22;1535;51.098;6.414;2024-01-27T11:54:54;9.80;99.90
3051;DHT22;1535;51.098;6.414;2024-01-27T11:57:20;10.10;99.90
3051;DHT22;1535;51.098;6.414;2024-01-27T11:59:50;10.20;99.90
3051;DHT22;1535;51.098;6.414;2024-01-27T12:02:17;10.20;99.90
3051;DHT22;1535;51.098;6.414;2024-01-27T12:04:44;10.50;99.90
3051;DHT22;1535;51.098;6.414;2024-01-27T12:07:11;10.70;99.90
3051;DHT22;1535;51.098;6.414;2024-01-27T12:09:39;10.50;99.90
3051;DHT22;1535;51.098;6.414;2024-01-27T12:12:08;10.50;99.90
3051;DHT22;1535;51.098;6.414;2024-01-27T12:14:39;10.70;99.90
3051;DHT22;1535;51.098;6.414;2024-01-27T12:17:08;11.20;99.90
3051;DHT22;1535;51.098;6.414;2024-01-27T12:19:36;11.30;99.90
3051;DHT22;1535;51.098;6.414;2024-01-27T12:22:04;11.50;99.90
3051;DHT22;1535;51.098;6.414;2024-01-27T12:24:31;11.40;99.90
3051;DHT22;1535;51.098;6.414;2024-01-27T12:26:59;11.20;99.90
3051;DHT22;1535;51.098;6.414;2024-01-27T12:29:26;11.30;99.90
3051;DHT22;1535;51.098;6.414;2024-01-27T12:31:55;11.30;99.90
3051;DHT22;1535;51.098;6.414;2024-01-27T12:34:22;11.10;99.90
3051;DHT22;1535;51.098;6.414;2024-01-27T12:36:49;11.10;99.90
3051;DHT22;1535;51.098;6.414;2024-01-27T12:39:18;11.30;99.90
3051;DHT22;1535;51.098;6.414;2024-01-27T12:41:44;11.40;99.90
3051;DHT22;1535;51.098;6.414;2024-01-27T12:44:12;11.60;99.90
3051;DHT22;1535;51.098;6.414;2024-01-27T12:46:39;11.60;99.90
3051;DHT22;1535;51.098;6.414;2024-01-27T12:49:06;11.40;99.90
3051;DHT22;1535;51.098;6.414;2024-01-27T12:51:34;11.70;99.90
3051;DHT22;1535;51.098;6.414;2024-01-27T12:54:01;11.70;99.90
3051;DHT22;1535;51.098;6.414;2024-01-27T12:56:28;11.90;99.90
3051;DHT22;1535;51.098;6.414;2024-01-27T12:58:54;12.20;99.90
3051;DHT22;1535;51.098;6.414;2024-01-27T13:01:23;12.60;99.90
3051;DHT22;1535;51.098;6.414;2024-01-27T13:03:49;12.70;99.90
3051;DHT22;1535;51.098;6.414;2024-01-27T13:06:17;12.70;99.90
3051;DHT22;1535;51.098;6.414;2024-01-27T13:08:44;12.90;99.90
3051;DHT22;1535;51.098;6.414;2024-01-27T13:11:11;12.80;99.90
3051;DHT22;1535;51.098;6.414;2024-01-27T13:13:39;12.70;99.90
3051;DHT22;1535;51.098;6.414;2024-01-27T13:16:06;12.60;99.90
3051;DHT22;1535;51.098;6.414;2024-01-27T13:18:35;12.40;99.90
3051;DHT22;1535;51.098;6.414;2024-01-27T13:21:02;12.30;99.90
3051;DHT22;1535;51.098;6.414;2024-01-27T13:23:32;12.50;99.90
3051;DHT22;1535;51.098;6.414;2024-01-27T13:25:59;12.50;99.90
3051;DHT22;1535;51.098;6.414;2024-01-27T13:28:25;12.30;99.90
3051;DHT22;1535;51.098;6.414;2024-01-27T13:30:52;12.20;99.90
3051;DHT22;1535;51.098;6.414;2024-01-27T13:33:19;11.80;99.90
3051;DHT22;1535;51.098;6.414;2024-01-27T13:35:48;11.90;99.90
3051;DHT22;1535;51.098;6.414;2024-01-27T13:38:16;12.00;99.90
3051;DHT22;1535;51.098;6.414;2024-01-27T13:40:45;11.80;99.90
3051;DHT22;1535;51.098;6.414;2024-01-27T13:43:13;11.50;99.90
3051;DHT22;1535;51.098;6.414;2024-01-27T13:45:39;11.60;99.90
3051;DHT22;1535;51.098;6.414;2024-01-27T13:48:07;12.00;99.90
3051;DHT22;1535;51.098;6.414;2024-01-27T13:50:34;12.40;99.90
3051;DHT22;1535;51.098;6.414;2024-01-27T13:53:03;12.50;99.90
3051;DHT22;1535;51.098;6.414;2024-01-27T13:55:31;12.60;99.90
3051;DHT22;1535;51.098;6.414;2024-01-27T13:57:58;12.80;99.90
3051;DHT22;1535;51.098;6.414;2024-01-27T14:00:26;12.90;99.90
3051;DHT22;1535;51.098;6.414;2024-01-27T14:02:53;13.40;99.90
3051;DHT22;1535;51.098;6.414;2024-01-27T14:05:20;13.60;99.90
3051;DHT22;1535;51.098;6.414;2024-01-27T14:07:47;13.70;99.90
3051;DHT22;1535;51.098;6.414;2024-01-27T14:10:15;13.60;99.90
3051;DHT22;1535;51.098;6.414;2024-01-27T14:12:42;13.60;99.90
3051;DHT22;1535;51.098;6.414;2024-01-27T14:15:10;13.60;99.90
3051;DHT22;1535;51.098;6.414;2024-01-27T14:17:37;13.50;99.90
3051;DHT22;1535;51.098;6.414;2024-01-27T14:20:04;13.20;99.90
3051;DHT22;1535;51.098;6.414;2024-01-27T14:22:31;13.30;99.90
3051;DHT22;1535;51.098;6.414;2024-01-27T14:25:00;13.30;99.90
3051;DHT22;1535;51.098;6.414;2024-01-27T14:27:28;13.30;99.90
3051;DHT22;1535;51.098;6.414;2024-01-27T14:29:56;13.20;99.90
3051;DHT22;1535;51.098;6.414;2024-01-27T14:32:23;13.20;99.90
3051;DHT22;1535;51.098;6.414;2024-01-27T14:34:53;12.90;99.90
3051;DHT22;1535;51.098;6.414;2024-01-27T14:37:22;12.90;99.90
3051;DHT22;1535;51.098;6.414;2024-01-27T14:39:49;12.80;99.90
3051;DHT22;1535;51.098;6.414;2024-01-27T14:42:16;12.70;99.90
3051;DHT22;1535;51.098;6.414;2024-01-27T14:47:26;12.30;99.90
3051;DHT22;1535;51.098;6.414;2024-01-27T14:50:08;12.10;99.90
3051;DHT22;1535;51.098;6.414;2024-01-27T14:52:36;11.50;99.90
3051;DHT22;1535;51.098;6.414;2024-01-27T14:55:03;11.30;99.90
3051;DHT22;1535;51.098;6.414;2024-01-27T14:57:30;11.00;99.90
3051;DHT22;1535;51.098;6.414;2024-01-27T14:59:58;10.60;99.90
3051;DHT22;1535;51.098;6.414;2024-01-27T15:02:26;10.80;99.90
3051;DHT22;1535;51.098;6.414;2024-01-27T15:04:55;10.90;99.90
3051;DHT22;1535;51.098;6.414;2024-01-27T15:07:25;10.80;99.90
3051;DHT22;1535;51.098;6.414;2024-01-27T15:09:55;10.70;99.90
3051;DHT22;1535;51.098;6.414;2024-01-27T15:12:24;10.50;99.90
3051;DHT22;1535;51.098;6.414;2024-01-27T15:14:52;10.30;99.90
3051;DHT22;1535;51.098;6.414;2024-01-27T15:17:20;10.00;99.90
3051;DHT22;1535;51.098;6.414;2024-01-27T15:19:49;10.00;99.90
3051;DHT22;1535;51.098;6.414;2024-01-27T15:22:17;9.90;99.90
3051;DHT22;1535;51.098;6.414;2024-01-27T15:24:44;9.70;99.90
3051;DHT22;1535;51.098;6.414;2024-01-27T15:27:11;9.50;99.90
3051;DHT22;1535;51.098;6.414;2024-01-27T15:29:38;9.30;99.90
3051;DHT22;1535;51.098;6.414;2024-01-27T15:32:06;9.00;99.90
3051;DHT22;1535;51.098;6.414;2024-01-27T15:34:35;8.90;99.90
3051;DHT22;1535;51.098;6.414;2024-01-27T15:37:01;8.80;99.90
3051;DHT22;1535;51.098;6.414;2024-01-27T15:39:28;8.70;99.90
3051;DHT22;1535;51.098;6.414;2024-01-27T15:41:55;8.60;99.90
3051;DHT22;1535;51.098;6.414;2024-01-27T15:44:23;8.40;99.90
3051;DHT22;1535;51.098;6.414;2024-01-27T15:46:54;8.40;99.90
3051;DHT22;1535;51.098;6.414;2024-01-27T15:49:21;8.20;99.90
3051;DHT22;1535;51.098;6.414;2024-01-27T15:51:50;8.20;99.90
3051;DHT22;1535;51.098;6.414;2024-01-27T15:54:16;8.10;99.90
3051;DHT22;1535;51.098;6.414;2024-01-27T15:56:44;7.90;99.90
3051;DHT22;1535;51.098;6.414;2024-01-27T15:59:12;7.80;99.90
3051;DHT22;1535;51.098;6.414;2024-01-27T16:01:39;7.60;99.90
3051;DHT22;1535;51.098;6.414;2024-01-27T16:04:07;7.40;99.90
3051;DHT22;1535;51.098;6.414;2024-01-27T16:06:35;7.30;99.90
3051;DHT22;1535;51.098;6.414;2024-01-27T16:09:03;7.00;99.90
3051;DHT22;1535;51.098;6.414;2024-01-27T16:11:30;6.90;99.90
3051;DHT22;1535;51.098;6.414;2024-01-27T16:13:58;6.80;99.90
3051;DHT22;1535;51.098;6.414;2024-01-27T16:16:25;6.60;99.90
3051;DHT22;1535;51.098;6.414;2024-01-27T16:18:53;6.50;99.90